sensor_id;sensor_type;location;lat;lon;timestamp;temperature;humidity
41471;DHT22;27211;51.220;5.308;2023-05-29T21:45:27;15.60;78.50
41471;DHT22;27211;51.220;5.308;2023-05-29T21:48:01;15.50;78.80
41471;DHT22;27211;51.220;5.308;2023-05-29T21:50:30;15.50;79.70
41471;DHT22;27211;51.220;5.308;2023-05-29T21:52:58;15.50;80.00
41471;DHT22;27211;51.220;5.308;2023-05-29T21:55:27;15.40;80.60
41471;DHT22;27211;51.220;5.308;2023-05-29T21:57:58;15.40;80.80
41471;DHT22;27211;51.220;5.308;2023-05-29T22:00:33;15.20;81.50
41471;DHT22;27211;51.220;5.308;2023-05-29T22:03:08;15.10;82.50
41471;DHT22;27211;51.220;5.308;2023-05-29T22:05:37;15.20;82.40
41471;DHT22;27211;51.220;5.308;2023-05-29T22:08:12;15.20;82.30
41471;DHT22;27211;51.220;5.308;2023-05-29T22:10:47;15.20;82.40
41471;DHT22;27211;51.220;5.308;2023-05-29T22:13:15;15.10;82.80
41471;DHT22;27211;51.220;5.308;2023-05-29T22:15:44;15.00;83.30
41471;DHT22;27211;51.220;5.308;2023-05-29T22:18:12;15.00;83.80
41471;DHT22;27211;51.220;5.308;2023-05-29T22:20:39;14.90;84.30
41471;DHT22;27211;51.220;5.308;2023-05-29T22:23:07;14.90;84.60
41471;DHT22;27211;51.220;5.308;2023-05-29T22:25:35;14.90;85.20
41471;DHT22;27211;51.220;5.308;2023-05-29T22:28:03;15.00;85.10
41471;DHT22;27211;51.220;5.308;2023-05-29T22:30:31;14.90;85.50
41471;DHT22;27211;51.220;5.308;2023-05-29T22:33:08;14.70;86.90
41471;DHT22;27211;51.220;5.308;2023-05-29T22:35:37;14.70;87.90
41471;DHT22;27211;51.220;5.308;2023-05-29T22:38:05;14.60;88.60
41471;DHT22;27211;51.220;5.308;2023-05-29T22:40:33;14.60;89.60
41471;DHT22;27211;51.220;5.308;2023-05-29T22:43:01;14.50;90.30
41471;DHT22;27211;51.220;5.308;2023-05-29T22:45:30;14.50;90.50
41471;DHT22;27211;51.220;5.308;2023-05-29T22:47:57;14.40;91.10
41471;DHT22;27211;51.220;5.308;2023-05-29T22:50:24;14.40;91.50
41471;DHT22;27211;51.220;5.308;2023-05-29T22:52:52;14.30;92.20
41471;DHT22;27211;51.220;5.308;2023-05-29T22:55:28;14.30;92.10
41471;DHT22;27211;51.220;5.308;2023-05-29T22:57:57;14.20;92.90
41471;DHT22;27211;51.220;5.308;2023-05-29T23:00:26;14.20;93.30
41471;DHT22;27211;51.220;5.308;2023-05-29T23:02:53;14.30;93.50
41471;DHT22;27211;51.220;5.308;2023-05-29T23:05:22;14.10;93.90
41471;DHT22;27211;51.220;5.308;2023-05-29T23:07:49;14.10;94.60
41471;DHT22;27211;51.220;5.308;2023-05-29T23:10:17;14.00;95.10
41471;DHT22;27211;51.220;5.308;2023-05-29T23:12:45;13.90;96.10
41471;DHT22;27211;51.220;5.308;2023-05-29T23:15:21;13.80;97.60
41471;DHT22;27211;51.220;5.308;2023-05-29T23:17:48;13.80;98.00
41471;DHT22;27211;51.220;5.308;2023-05-29T23:20:17;13.90;98.20
41471;DHT22;27211;51.220;5.308;2023-05-29T23:22:51;13.80;98.30
41471;DHT22;27211;51.220;5.308;2023-05-29T23:25:19;13.70;98.70
41471;DHT22;27211;51.220;5.308;2023-05-29T23:27:47;13.70;98.90
41471;DHT22;27211;51.220;5.308;2023-05-29T23:30:22;13.70;99.20
41471;DHT22;27211;51.220;5.308;2023-05-29T23:32:51;13.60;99.80
41471;DHT22;27211;51.220;5.308;2023-05-29T23:35:18;13.60;99.90
41471;DHT22;27211;51.220;5.308;2023-05-29T23:37:46;13.60;99.90
41471;DHT22;27211;51.220;5.308;2023-05-29T23:40:14;13.50;99.90
41471;DHT22;27211;51.220;5.308;2023-05-29T23:42:52;13.50;99.90
41471;DHT22;27211;51.220;5.308;2023-05-29T23:45:27;13.50;99.90
41471;DHT22;27211;51.220;5.308;2023-05-29T23:47:55;13.40;99.90
41471;DHT22;27211;51.220;5.308;2023-05-29T23:50:23;13.30;99.90
41471;DHT22;27211;51.220;5.308;2023-05-29T23:52:50;13.20;99.90
41471;DHT22;27211;51.220;5.308;2023-05-29T23:55:18;13.20;99.90
41471;DHT22;27211;51.220;5.308;2023-05-29T23:57:53;13.10;99.90
